createdAt,value
2024-02-11T00:00:44.742Z,-0.47
2024-02-11T00:03:11.740Z,-0.28
2024-02-11T00:05:38.843Z,-0.60
2024-02-11T00:08:09.872Z,-0.54
2024-02-11T00:10:37.251Z,-1.28
2024-02-11T00:13:07.229Z,-0.24
2024-02-11T00:15:34.244Z,-1.15
2024-02-11T00:18:01.548Z,-0.43
2024-02-11T00:20:28.935Z,-0.29
2024-02-11T00:22:56.200Z,-0.71
2024-02-11T00:25:23.344Z,-0.43
2024-02-11T00:27:53.966Z,-0.41
2024-02-11T00:30:23.674Z,-0.93
2024-02-11T00:32:51.038Z,-0.32
2024-02-11T00:35:21.157Z,-0.41
2024-02-11T00:37:49.377Z,-1.89
2024-02-11T00:40:17.814Z,-0.45
2024-02-11T00:42:46.683Z,-0.42
2024-02-11T00:45:16.365Z,-0.43
2024-02-11T00:47:43.809Z,-1.05
2024-02-11T00:50:15.261Z,-0.73
2024-02-11T00:52:43.046Z,-0.44
2024-02-11T00:55:22.781Z,-0.58
2024-02-11T00:57:52.735Z,-0.73
2024-02-11T01:00:19.916Z,-0.44
2024-02-11T01:02:47.066Z,-0.89
2024-02-11T01:05:14.256Z,-0.39
2024-02-11T01:07:42.051Z,-0.54
2024-02-11T01:10:14.290Z,-0.69
2024-02-11T01:12:43.552Z,-0.29
2024-02-11T01:15:13.631Z,-0.30
2024-02-11T01:17:45.285Z,-0.47
2024-02-11T01:20:18.424Z,-0.25
2024-02-11T01:22:48.346Z,-0.55
2024-02-11T01:25:24.131Z,-0.28
2024-02-11T01:27:51.725Z,-0.36
2024-02-11T01:30:21.988Z,-0.27
2024-02-11T01:32:50.337Z,-0.23
2024-02-11T01:35:20.749Z,-0.19
2024-02-11T01:37:48.696Z,-0.15
2024-02-11T01:40:19.340Z,-0.22
2024-02-11T01:42:47.817Z,-0.09
2024-02-11T01:45:16.984Z,-0.08
2024-02-11T01:47:47.656Z,-0.98
2024-02-11T01:50:22.109Z,-0.32
2024-02-11T01:52:49.661Z,-0.50
2024-02-11T01:55:20.499Z,-0.30
2024-02-11T01:57:48.658Z,-0.25
2024-02-11T02:00:19.212Z,-0.23
2024-02-11T02:02:50.253Z,-0.17
2024-02-11T02:05:17.594Z,-0.53
2024-02-11T02:07:44.784Z,-0.26
2024-02-11T02:10:12.060Z,-0.39
2024-02-11T02:12:41.806Z,-0.25
2024-02-11T02:15:09.897Z,-0.42
2024-02-11T02:17:37.464Z,-0.20
2024-02-11T02:20:05.605Z,-0.40
2024-02-11T02:22:34.981Z,-0.59
2024-02-11T02:25:02.245Z,-0.33
2024-02-11T02:27:31.007Z,-0.15
2024-02-11T02:29:57.979Z,-0.36
2024-02-11T02:32:25.072Z,-0.02
2024-02-11T02:34:52.253Z,-0.31
2024-02-11T02:37:19.342Z,-0.11
2024-02-11T02:39:46.433Z,-0.14
2024-02-11T02:42:13.739Z,-0.16
2024-02-11T02:44:41.009Z,-0.17
2024-02-11T02:47:08.485Z,-0.21
2024-02-11T02:49:35.947Z,-0.25
2024-02-11T02:52:03.713Z,-0.16
2024-02-11T02:54:30.928Z,-0.05
2024-02-11T02:56:59.874Z,-0.04
2024-02-11T02:59:27.607Z,-0.17
2024-02-11T03:02:03.256Z,-0.08
2024-02-11T03:04:30.564Z,-0.29
2024-02-11T03:06:57.566Z,-0.24
2024-02-11T03:09:26.153Z,-0.33
2024-02-11T03:11:53.394Z,-0.39
2024-02-11T03:14:21.729Z,-0.21
2024-02-11T03:16:49.316Z,-0.12
2024-02-11T03:19:19.517Z,-0.20
2024-02-11T03:21:53.827Z,-0.19
2024-02-11T03:24:22.133Z,-0.14
2024-02-11T03:26:49.297Z,-0.17
2024-02-11T03:29:17.027Z,-0.42
2024-02-11T03:31:44.175Z,-0.05
2024-02-11T03:34:12.554Z,-0.16
2024-02-11T03:36:43.270Z,-0.03
2024-02-11T03:39:10.811Z,-0.03
2024-02-11T03:41:38.063Z,-0.07
2024-02-11T03:44:06.267Z,-0.03
2024-02-11T03:46:33.453Z,-0.20
2024-02-11T03:49:02.315Z,-0.03
2024-02-11T03:51:30.178Z,-0.12
2024-02-11T03:54:00.492Z,-0.50
2024-02-11T03:56:31.121Z,-0.51
2024-02-11T03:58:58.354Z,-0.07
2024-02-11T04:01:25.512Z,-0.21
2024-02-11T04:03:52.732Z,-0.04
2024-02-11T04:06:22.073Z,-0.01
2024-02-11T04:08:51.050Z,-0.01
2024-02-11T04:11:21.920Z,0.02
2024-02-11T04:13:49.609Z,-0.08
2024-02-11T04:16:17.388Z,-0.49
2024-02-11T04:18:49.114Z,-0.72
2024-02-11T04:21:22.342Z,-0.16
2024-02-11T04:23:50.754Z,-1.24
2024-02-11T04:26:19.313Z,-0.12
2024-02-11T04:28:49.697Z,-0.23
2024-02-11T04:31:20.317Z,-0.14
2024-02-11T04:33:48.041Z,-0.07
2024-02-11T04:36:18.007Z,-0.02
2024-02-11T04:38:45.988Z,-0.77
2024-02-11T04:41:15.288Z,-0.10
2024-02-11T04:43:43.051Z,-0.46
2024-02-11T04:46:10.761Z,-0.08
2024-02-11T04:48:38.196Z,-0.03
2024-02-11T04:51:06.177Z,-0.07
2024-02-11T04:53:35.183Z,-0.35
2024-02-11T04:56:02.325Z,-0.49
2024-02-11T04:58:32.406Z,-0.25
2024-02-11T05:01:02.454Z,0.06
2024-02-11T05:03:29.512Z,0.07
2024-02-11T05:05:56.720Z,-0.25
2024-02-11T05:08:26.520Z,-0.04
2024-02-11T05:10:56.136Z,-0.16
2024-02-11T05:13:31.868Z,-0.02
2024-02-11T05:16:01.192Z,-0.03
2024-02-11T05:18:31.229Z,-0.06
2024-02-11T05:20:58.572Z,-0.02
2024-02-11T05:23:26.130Z,-0.03
2024-02-11T05:25:53.479Z,-0.20
2024-02-11T05:28:21.098Z,-0.29
2024-02-11T05:30:51.304Z,-0.15
2024-02-11T05:33:20.888Z,-0.17
2024-02-11T05:35:50.427Z,-0.19
2024-02-11T05:38:21.894Z,-0.19
2024-02-11T05:40:52.721Z,-0.21
2024-02-11T05:43:24.605Z,-0.13
2024-02-11T05:45:51.603Z,-0.04
2024-02-11T05:48:19.799Z,-0.14
2024-02-11T05:50:47.780Z,-0.05
2024-02-11T05:53:15.400Z,-0.74
2024-02-11T05:55:42.700Z,-0.11
2024-02-11T05:58:10.170Z,-0.32
2024-02-11T06:00:38.202Z,-0.09
2024-02-11T06:03:05.655Z,-0.23
2024-02-11T06:05:33.262Z,-0.18
2024-02-11T06:08:06.667Z,-0.24
2024-02-11T06:10:37.747Z,-0.77
2024-02-11T06:13:05.235Z,-0.03
2024-02-11T06:18:03.019Z,-0.09
2024-02-11T06:20:31.639Z,0.06
2024-02-11T06:22:59.224Z,0.03
2024-02-11T06:25:26.565Z,-0.02
2024-02-11T06:27:54.645Z,-0.36
2024-02-11T06:30:23.437Z,0.02
2024-02-11T06:32:55.267Z,-0.20
2024-02-11T06:35:23.223Z,-0.03
2024-02-11T06:37:51.884Z,-0.12
2024-02-11T06:40:27.127Z,-0.08
2024-02-11T06:42:55.940Z,0.11
2024-02-11T06:45:32.483Z,0.19
2024-02-11T06:47:59.575Z,0.14
2024-02-11T06:50:27.617Z,-0.96
2024-02-11T06:52:55.028Z,-0.09
2024-02-11T06:55:25.631Z,0.33
2024-02-11T06:57:54.829Z,0.33
2024-02-11T07:00:23.373Z,0.33
2024-02-11T07:02:55.121Z,-0.05
2024-02-11T07:05:24.170Z,0.13
2024-02-11T07:07:54.074Z,-0.06
2024-02-11T07:10:26.296Z,0.41
2024-02-11T07:12:53.560Z,0.40
2024-02-11T07:15:23.103Z,-0.05
2024-02-11T07:17:55.410Z,0.41
2024-02-11T07:20:25.874Z,-0.41
2024-02-11T07:22:53.242Z,0.42
2024-02-11T07:25:22.753Z,0.32
2024-02-11T07:27:49.734Z,0.22
2024-02-11T07:30:22.167Z,0.31
2024-02-11T07:32:52.436Z,0.25
2024-02-11T07:35:24.355Z,-0.15
2024-02-11T07:37:52.776Z,0.18
2024-02-11T07:40:19.699Z,0.37
2024-02-11T07:42:47.521Z,0.22
2024-02-11T07:45:17.047Z,-0.40
2024-02-11T07:47:47.609Z,0.49
2024-02-11T07:50:19.169Z,0.44
2024-02-11T07:52:49.177Z,0.56
2024-02-11T07:55:19.165Z,0.38
2024-02-11T07:57:50.540Z,0.60
2024-02-11T08:00:21.457Z,0.48
2024-02-11T08:02:48.828Z,0.33
2024-02-11T08:05:16.207Z,0.55
2024-02-11T08:07:44.600Z,0.55
2024-02-11T08:10:14.052Z,0.74
2024-02-11T08:12:41.618Z,0.42
2024-02-11T08:15:13.863Z,0.22
2024-02-11T08:17:44.136Z,0.51
2024-02-11T08:20:15.372Z,0.70
2024-02-11T08:22:45.301Z,0.70
2024-02-11T08:25:13.260Z,0.81
2024-02-11T08:27:41.354Z,0.39
2024-02-11T08:30:12.248Z,0.81
2024-02-11T08:32:44.760Z,0.79
2024-02-11T08:35:12.844Z,0.84
2024-02-11T08:37:42.794Z,0.84
2024-02-11T08:40:12.692Z,0.71
2024-02-11T08:42:40.239Z,0.90
2024-02-11T08:45:13.110Z,0.83
2024-02-11T08:47:42.658Z,0.97
2024-02-11T08:50:12.463Z,0.53
2024-02-11T08:52:42.335Z,0.70
2024-02-11T08:55:12.632Z,0.74
2024-02-11T08:57:39.777Z,1.09
2024-02-11T09:00:14.328Z,1.15
2024-02-11T09:02:43.704Z,1.02
2024-02-11T09:05:11.344Z,1.10
2024-02-11T09:07:44.012Z,0.92
2024-02-11T09:10:16.544Z,0.51
2024-02-11T09:12:43.722Z,1.07
2024-02-11T09:15:18.326Z,1.11
2024-02-11T09:17:48.725Z,1.05
2024-02-11T09:20:22.940Z,0.99
2024-02-11T09:22:52.862Z,1.00
2024-02-11T09:25:20.089Z,0.83
2024-02-11T09:27:49.977Z,0.65
2024-02-11T09:30:18.774Z,1.10
2024-02-11T09:32:49.899Z,1.10
2024-02-11T09:35:23.637Z,1.09
2024-02-11T09:37:52.662Z,0.90
2024-02-11T09:40:20.490Z,1.06
2024-02-11T09:42:50.890Z,0.70
2024-02-11T09:45:18.484Z,1.21
2024-02-11T09:47:50.606Z,1.21
2024-02-11T09:50:24.058Z,0.96
2024-02-11T09:52:51.857Z,1.20
2024-02-11T09:55:23.280Z,1.04
2024-02-11T09:57:56.247Z,1.11
2024-02-11T10:00:25.556Z,0.84
2024-02-11T10:02:54.832Z,1.41
2024-02-11T10:05:25.648Z,1.28
2024-02-11T10:07:56.471Z,1.42
2024-02-11T10:10:23.907Z,1.21
2024-02-11T10:12:53.015Z,1.49
2024-02-11T10:15:21.765Z,1.41
2024-02-11T10:17:49.076Z,1.53
2024-02-11T10:20:18.637Z,1.25
2024-02-11T10:22:46.438Z,1.53
2024-02-11T10:25:17.746Z,1.38
2024-02-11T10:27:46.131Z,1.36
2024-02-11T10:30:14.308Z,1.23
2024-02-11T10:32:43.337Z,1.37
2024-02-11T10:35:14.024Z,1.45
2024-02-11T10:37:52.211Z,1.38
2024-02-11T10:40:28.026Z,1.24
2024-02-11T10:42:58.002Z,1.30
2024-02-11T10:45:28.901Z,1.09
2024-02-11T10:47:56.216Z,1.42
2024-02-11T10:50:23.332Z,1.39
2024-02-11T10:52:54.548Z,1.07
2024-02-11T10:55:27.740Z,1.09
2024-02-11T10:57:55.417Z,1.00
2024-02-11T11:00:23.985Z,1.27
2024-02-11T11:02:55.026Z,1.31
2024-02-11T11:05:23.925Z,1.13
2024-02-11T11:07:56.153Z,1.30
2024-02-11T11:10:30.248Z,1.07
2024-02-11T11:13:01.184Z,1.24
2024-02-11T11:15:33.756Z,1.26
2024-02-11T11:18:10.083Z,1.31
2024-02-11T11:20:38.514Z,1.22
2024-02-11T11:23:07.918Z,1.25
2024-02-11T11:25:38.705Z,1.25
2024-02-11T11:28:16.280Z,1.16
2024-02-11T11:30:44.667Z,1.35
2024-02-11T11:33:14.937Z,1.19
2024-02-11T11:35:48.056Z,1.37
2024-02-11T11:38:21.061Z,1.30
2024-02-11T11:40:52.510Z,1.22
2024-02-11T11:43:22.342Z,1.21
2024-02-11T11:46:00.304Z,0.94
2024-02-11T11:48:29.282Z,0.78
2024-02-11T11:50:58.284Z,1.12
2024-02-11T11:53:30.457Z,1.18
2024-02-11T11:56:02.664Z,0.18
2024-02-11T11:58:32.467Z,1.06
2024-02-11T12:01:05.985Z,1.25
2024-02-11T12:03:36.600Z,1.28
2024-02-11T12:06:03.889Z,1.37
2024-02-11T12:08:32.214Z,1.27
2024-02-11T12:11:10.986Z,1.25
2024-02-11T12:13:39.368Z,1.30
2024-02-11T12:16:17.143Z,1.49
2024-02-11T12:18:45.571Z,1.60
2024-02-11T12:21:14.177Z,1.62
2024-02-11T12:23:43.412Z,1.60
2024-02-11T12:26:11.931Z,1.30
2024-02-11T12:28:40.817Z,1.51
2024-02-11T12:31:15.248Z,1.61
2024-02-11T12:33:47.606Z,1.49
2024-02-11T12:36:15.655Z,1.62
2024-02-11T12:38:48.127Z,1.49
2024-02-11T12:41:19.116Z,1.50
2024-02-11T12:43:47.861Z,1.55
2024-02-11T12:46:15.172Z,1.54
2024-02-11T12:48:44.482Z,0.86
2024-02-11T12:51:13.070Z,1.44
2024-02-11T12:53:45.060Z,0.98
2024-02-11T12:56:19.430Z,1.11
2024-02-11T12:58:52.546Z,1.33
2024-02-11T13:01:28.332Z,1.18
2024-02-11T13:04:00.752Z,1.44
2024-02-11T13:06:27.983Z,1.48
2024-02-11T13:09:00.736Z,1.43
2024-02-11T13:11:35.108Z,1.52
2024-02-11T13:14:05.091Z,1.44
2024-02-11T13:16:33.843Z,1.24
2024-02-11T13:19:07.334Z,1.34
2024-02-11T13:21:34.730Z,1.16
2024-02-11T13:24:02.832Z,1.34
2024-02-11T13:26:32.518Z,1.08
2024-02-11T13:29:06.159Z,1.28
2024-02-11T13:31:36.563Z,1.10
2024-02-11T13:34:04.638Z,1.27
2024-02-11T13:36:32.496Z,1.23
2024-02-11T13:38:59.638Z,1.27
2024-02-11T13:41:28.962Z,1.36
2024-02-11T13:43:58.662Z,0.79
2024-02-11T13:46:26.059Z,1.14
2024-02-11T13:48:59.088Z,0.97
2024-02-11T13:51:26.462Z,1.37
2024-02-11T13:53:53.448Z,1.41
2024-02-11T13:56:25.648Z,1.39
2024-02-11T13:58:52.982Z,1.25
2024-02-11T14:01:20.476Z,1.38
2024-02-11T14:03:48.174Z,1.31
2024-02-11T14:06:16.733Z,1.39
2024-02-11T14:08:49.446Z,1.27
2024-02-11T14:11:17.560Z,1.12
2024-02-11T14:13:44.888Z,1.42
2024-02-11T14:16:12.224Z,1.31
2024-02-11T14:18:42.430Z,1.35
2024-02-11T14:21:10.373Z,0.87
2024-02-11T14:23:39.688Z,0.40
2024-02-11T14:26:10.745Z,1.20
2024-02-11T14:28:38.369Z,0.91
2024-02-11T14:31:09.031Z,1.20
2024-02-11T14:33:36.913Z,1.18
2024-02-11T14:36:04.620Z,0.91
2024-02-11T14:38:32.123Z,1.25
2024-02-11T14:41:00.965Z,0.93
2024-02-11T14:43:28.117Z,0.75
2024-02-11T14:46:01.904Z,0.90
2024-02-11T14:48:29.420Z,1.04
2024-02-11T14:50:58.991Z,1.19
2024-02-11T14:53:26.577Z,0.90
2024-02-11T14:56:04.427Z,1.18
2024-02-11T14:58:37.309Z,0.97
2024-02-11T15:01:07.541Z,0.82
2024-02-11T15:03:41.759Z,1.18
2024-02-11T15:06:13.799Z,1.17
2024-02-11T15:08:46.849Z,1.00
2024-02-11T15:11:16.985Z,1.14
2024-02-11T15:13:45.217Z,1.18
2024-02-11T15:16:12.211Z,1.00
2024-02-11T15:18:41.918Z,0.98
2024-02-11T15:21:15.079Z,1.32
2024-02-11T15:23:44.185Z,0.91
2024-02-11T15:26:11.462Z,1.08
2024-02-11T15:28:38.473Z,1.23
2024-02-11T15:31:10.452Z,1.07
2024-02-11T15:33:43.362Z,1.25
2024-02-11T15:36:11.317Z,1.05
2024-02-11T15:38:40.838Z,1.29
2024-02-11T15:41:12.203Z,1.07
2024-02-11T15:43:39.493Z,0.94
2024-02-11T15:46:06.600Z,1.32
2024-02-11T15:48:37.400Z,1.29
2024-02-11T15:51:05.262Z,1.22
2024-02-11T15:53:37.341Z,1.22
2024-02-11T15:56:05.879Z,1.17
2024-02-11T15:58:33.184Z,0.97
2024-02-11T16:01:07.019Z,0.72
2024-02-11T16:03:34.178Z,1.15
2024-02-11T16:06:01.330Z,0.63
2024-02-11T16:08:29.533Z,0.89
2024-02-11T16:10:59.644Z,1.30
2024-02-11T16:13:31.112Z,1.31
2024-02-11T16:16:02.514Z,1.11
2024-02-11T16:18:32.997Z,1.15
2024-02-11T16:21:02.678Z,1.25
2024-02-11T16:23:41.784Z,1.24
2024-02-11T16:26:17.361Z,1.08
2024-02-11T16:28:45.465Z,1.05
2024-02-11T16:31:15.448Z,1.26
2024-02-11T16:33:42.600Z,1.17
2024-02-11T16:36:10.328Z,1.24
2024-02-11T16:38:38.583Z,0.99
2024-02-11T16:41:09.404Z,0.94
2024-02-11T16:43:55.028Z,1.22
2024-02-11T16:46:31.000Z,1.26
2024-02-11T16:49:02.312Z,1.30
2024-02-11T16:51:32.198Z,0.87
2024-02-11T16:54:05.795Z,0.97
2024-02-11T16:56:35.888Z,1.30
2024-02-11T16:59:06.096Z,1.24
2024-02-11T17:01:36.912Z,1.00
2024-02-11T17:04:07.411Z,1.37
2024-02-11T17:06:37.345Z,1.42
2024-02-11T17:09:06.480Z,1.30
2024-02-11T17:11:37.802Z,1.42
2024-02-11T17:14:15.520Z,1.43
2024-02-11T17:16:45.142Z,1.38
2024-02-11T17:19:17.974Z,1.40
2024-02-11T17:21:46.430Z,1.37
2024-02-11T17:24:16.414Z,1.30
2024-02-11T17:26:43.803Z,1.37
2024-02-11T17:29:13.305Z,1.22
2024-02-11T17:31:44.052Z,1.34
2024-02-11T17:34:15.101Z,1.44
2024-02-11T17:36:43.472Z,1.50
2024-02-11T17:39:12.977Z,1.31
2024-02-11T17:41:44.883Z,1.35
2024-02-11T17:44:13.947Z,1.24
2024-02-11T17:46:44.270Z,1.32
2024-02-11T17:49:18.283Z,1.10
2024-02-11T17:51:48.135Z,1.19
2024-02-11T17:54:16.338Z,1.14
2024-02-11T17:56:46.906Z,0.46
2024-02-11T17:59:15.441Z,1.28
2024-02-11T18:01:45.401Z,1.26
2024-02-11T18:04:13.114Z,0.88
2024-02-11T18:06:46.574Z,1.00
2024-02-11T18:09:14.222Z,1.26
2024-02-11T18:11:44.057Z,1.22
2024-02-11T18:14:18.954Z,1.33
2024-02-11T18:16:46.348Z,1.36
2024-02-11T18:19:14.007Z,1.36
2024-02-11T18:21:41.255Z,1.34
2024-02-11T18:24:10.899Z,1.39
2024-02-11T18:26:41.810Z,1.31
2024-02-11T18:29:09.026Z,1.40
2024-02-11T18:31:35.949Z,1.59
2024-02-11T18:34:03.166Z,1.57
2024-02-11T18:36:30.202Z,1.57
2024-02-11T18:38:57.270Z,1.53
2024-02-11T18:41:26.866Z,1.54
2024-02-11T18:43:54.073Z,1.47
2024-02-11T18:46:21.788Z,0.79
2024-02-11T18:48:49.555Z,1.48
2024-02-11T18:51:16.619Z,1.54
2024-02-11T18:53:43.654Z,1.30
2024-02-11T18:56:10.682Z,1.44
2024-02-11T18:58:40.882Z,1.53
2024-02-11T19:01:12.195Z,1.52
2024-02-11T19:03:44.483Z,1.68
2024-02-11T19:06:11.745Z,1.55
2024-02-11T19:08:42.625Z,1.69
2024-02-11T19:11:13.745Z,1.48
2024-02-11T19:13:43.544Z,1.34
2024-02-11T19:16:10.577Z,1.45
2024-02-11T19:18:42.858Z,1.44
2024-02-11T19:21:11.039Z,1.60
2024-02-11T19:23:38.587Z,1.65
2024-02-11T19:26:05.772Z,1.42
2024-02-11T19:28:33.840Z,1.49
2024-02-11T19:31:01.726Z,1.39
2024-02-11T19:33:29.429Z,1.51
2024-02-11T19:35:57.603Z,1.53
2024-02-11T19:38:27.075Z,1.61
2024-02-11T19:40:55.781Z,1.64
2024-02-11T19:43:23.063Z,1.36
2024-02-11T19:45:51.416Z,1.41
2024-02-11T19:48:18.490Z,1.04
2024-02-11T19:50:53.141Z,1.53
2024-02-11T19:53:34.110Z,1.56
2024-02-11T19:56:09.154Z,1.36
2024-02-11T19:58:42.577Z,1.18
2024-02-11T20:01:10.835Z,1.50
2024-02-11T20:03:39.039Z,1.46
2024-02-11T20:06:09.619Z,1.41
2024-02-11T20:08:37.829Z,1.30
2024-02-11T20:11:10.277Z,1.34
2024-02-11T20:13:37.720Z,1.39
2024-02-11T20:16:05.141Z,1.52
2024-02-11T20:18:32.379Z,1.49
2024-02-11T20:20:59.975Z,1.57
2024-02-11T20:23:27.548Z,0.57
2024-02-11T20:25:55.851Z,1.59
2024-02-11T20:28:26.136Z,1.61
2024-02-11T20:30:54.845Z,1.61
2024-02-11T20:33:22.664Z,1.27
2024-02-11T20:35:51.943Z,1.24
2024-02-11T20:38:20.472Z,1.48
2024-02-11T20:40:50.425Z,1.43
2024-02-11T20:43:17.493Z,0.93
2024-02-11T20:45:57.721Z,1.65
2024-02-11T20:48:27.765Z,1.64
2024-02-11T20:50:56.559Z,1.20
2024-02-11T20:53:24.759Z,1.60
2024-02-11T20:55:55.213Z,1.19
2024-02-11T20:58:22.191Z,1.57
2024-02-11T21:00:51.910Z,1.46
2024-02-11T21:03:27.830Z,1.54
2024-02-11T21:05:55.711Z,1.33
2024-02-11T21:08:22.772Z,1.56
2024-02-11T21:10:49.928Z,1.47
2024-02-11T21:13:18.328Z,1.23
2024-02-11T21:15:45.550Z,1.39
2024-02-11T21:18:13.083Z,1.31
2024-02-11T21:20:40.300Z,0.59
2024-02-11T21:23:11.914Z,1.45
2024-02-11T21:25:41.116Z,1.55
2024-02-11T21:28:10.675Z,1.54
2024-02-11T21:30:37.879Z,1.70
2024-02-11T21:33:07.930Z,1.65
2024-02-11T21:35:35.512Z,1.67
2024-02-11T21:38:05.143Z,1.25
2024-02-11T21:40:39.748Z,1.36
2024-02-11T21:43:14.729Z,1.62
2024-02-11T21:45:42.522Z,1.56
2024-02-11T21:48:09.480Z,1.56
2024-02-11T21:50:39.713Z,1.60
2024-02-11T21:53:10.989Z,1.60
2024-02-11T21:55:38.876Z,1.59
2024-02-11T21:58:05.828Z,1.14
2024-02-11T22:00:32.939Z,1.49
2024-02-11T22:03:00.366Z,1.48
2024-02-11T22:05:27.623Z,1.50
2024-02-11T22:07:57.602Z,1.42
2024-02-11T22:10:24.722Z,1.49
2024-02-11T22:12:51.743Z,1.52
2024-02-11T22:15:22.206Z,1.49
2024-02-11T22:17:53.808Z,1.52
2024-02-11T22:20:21.375Z,1.52
2024-02-11T22:22:49.144Z,1.63
2024-02-11T22:25:16.216Z,1.60
2024-02-11T22:27:43.284Z,0.61
2024-02-11T22:30:13.721Z,1.57
2024-02-11T22:32:41.121Z,1.63
2024-02-11T22:35:10.578Z,1.20
2024-02-11T22:37:39.860Z,1.53
2024-02-11T22:40:07.755Z,1.61
2024-02-11T22:42:35.502Z,1.60
2024-02-11T22:45:03.572Z,1.24
2024-02-11T22:47:31.212Z,1.56
2024-02-11T22:49:58.560Z,1.49
2024-02-11T22:52:25.572Z,1.33
2024-02-11T22:54:52.502Z,1.44
2024-02-11T22:57:19.828Z,1.63
2024-02-11T22:59:47.396Z,1.56
2024-02-11T23:02:18.564Z,1.48
2024-02-11T23:04:48.968Z,1.52
2024-02-11T23:07:16.784Z,1.62
2024-02-11T23:09:43.851Z,1.69
2024-02-11T23:12:11.660Z,1.66
2024-02-11T23:14:38.651Z,1.69
2024-02-11T23:17:06.341Z,1.69
2024-02-11T23:19:33.372Z,1.67
2024-02-11T23:22:01.365Z,1.64
2024-02-11T23:24:31.482Z,1.65
2024-02-11T23:27:07.210Z,1.63
2024-02-11T23:29:37.550Z,1.61
2024-02-11T23:32:08.574Z,0.72
2024-02-11T23:34:36.864Z,0.76
2024-02-11T23:37:10.745Z,1.70
2024-02-11T23:39:37.992Z,1.80
2024-02-11T23:42:08.731Z,1.60
2024-02-11T23:44:38.961Z,1.86
2024-02-11T23:47:07.175Z,1.64
2024-02-11T23:49:37.558Z,1.02
2024-02-11T23:52:06.506Z,1.81
2024-02-11T23:54:40.112Z,1.83
2024-02-11T23:57:08.457Z,1.53
2024-02-11T23:59:36.936Z,1.02
